createdAt,value
2017-10-25T00:00:33.674Z,100.00
2017-10-25T00:03:01.366Z,100.00
2017-10-25T00:05:29.015Z,100.00
2017-10-25T00:07:56.711Z,100.00
2017-10-25T00:10:24.355Z,100.00
2017-10-25T00:12:52.037Z,100.00
2017-10-25T00:15:19.677Z,100.00
2017-10-25T00:17:47.394Z,100.00
2017-10-25T00:20:15.030Z,100.00
2017-10-25T00:22:42.728Z,100.00
2017-10-25T00:25:10.378Z,100.00
2017-10-25T00:27:38.068Z,100.00
2017-10-25T00:30:05.735Z,100.00
2017-10-25T00:32:33.434Z,100.00
2017-10-25T00:35:01.089Z,100.00
2017-10-25T00:37:28.804Z,100.00
2017-10-25T00:39:56.491Z,100.00
2017-10-25T00:42:24.138Z,100.00
2017-10-25T00:44:51.827Z,100.00
2017-10-25T00:47:19.480Z,100.00
2017-10-25T00:49:47.199Z,100.00
2017-10-25T00:52:14.867Z,100.00
2017-10-25T00:54:42.592Z,100.00
2017-10-25T00:57:10.256Z,100.00
2017-10-25T00:59:37.943Z,100.00
2017-10-25T01:02:05.594Z,100.00
2017-10-25T01:04:33.272Z,100.00
2017-10-25T01:07:00.938Z,100.00
2017-10-25T01:09:28.655Z,100.00
2017-10-25T01:11:56.329Z,100.00
2017-10-25T01:14:24.039Z,100.00
2017-10-25T01:16:51.695Z,100.00
2017-10-25T01:19:19.378Z,100.00
2017-10-25T01:21:47.048Z,100.00
2017-10-25T01:24:14.765Z,100.00
2017-10-25T01:26:42.431Z,100.00
2017-10-25T01:29:10.133Z,100.00
2017-10-25T01:31:37.797Z,100.00
2017-10-25T01:34:05.506Z,100.00
2017-10-25T01:36:33.170Z,100.00
2017-10-25T01:39:00.933Z,100.00
2017-10-25T01:41:28.591Z,100.00
2017-10-25T01:43:56.296Z,100.00
2017-10-25T01:46:23.976Z,100.00
2017-10-25T01:48:51.635Z,100.00
2017-10-25T01:51:19.356Z,100.00
2017-10-25T01:53:46.956Z,100.00
2017-10-25T01:56:14.668Z,100.00
2017-10-25T01:58:42.387Z,100.00
2017-10-25T02:01:10.099Z,100.00
2017-10-25T02:03:37.762Z,100.00
2017-10-25T02:06:05.459Z,100.00
2017-10-25T02:08:33.121Z,100.00
2017-10-25T02:11:00.839Z,100.00
2017-10-25T02:13:28.518Z,100.00
2017-10-25T02:15:56.221Z,100.00
2017-10-25T02:18:23.823Z,100.00
2017-10-25T02:20:51.511Z,100.00
2017-10-25T02:23:19.196Z,100.00
2017-10-25T02:25:46.890Z,100.00
2017-10-25T02:28:14.552Z,100.00
2017-10-25T02:30:42.229Z,100.00
2017-10-25T02:33:09.924Z,100.00
2017-10-25T02:35:37.597Z,100.00
2017-10-25T02:38:05.298Z,100.00
2017-10-25T02:40:32.979Z,100.00
2017-10-25T02:43:00.647Z,100.00
2017-10-25T02:45:28.367Z,100.00
2017-10-25T02:47:56.028Z,100.00
2017-10-25T02:50:23.714Z,100.00
2017-10-25T02:52:51.363Z,100.00
2017-10-25T02:55:19.046Z,100.00
2017-10-25T02:57:46.699Z,100.00
2017-10-25T03:00:14.354Z,100.00
2017-10-25T03:02:42.040Z,100.00
2017-10-25T03:05:09.704Z,100.00
2017-10-25T03:07:37.345Z,100.00
2017-10-25T03:10:05.003Z,100.00
2017-10-25T03:12:32.692Z,100.00
2017-10-25T03:15:00.346Z,100.00
2017-10-25T03:17:28.042Z,100.00
2017-10-25T03:19:55.700Z,100.00
2017-10-25T03:22:23.399Z,100.00
2017-10-25T03:24:51.061Z,100.00
2017-10-25T03:27:18.768Z,100.00
2017-10-25T03:29:46.433Z,100.00
2017-10-25T03:32:14.162Z,100.00
2017-10-25T03:34:41.821Z,100.00
2017-10-25T03:37:09.524Z,100.00
2017-10-25T03:39:37.220Z,100.00
2017-10-25T03:42:04.910Z,100.00
2017-10-25T03:44:32.562Z,100.00
2017-10-25T03:47:00.221Z,100.00
2017-10-25T03:49:27.919Z,100.00
2017-10-25T03:51:55.577Z,100.00
2017-10-25T03:54:23.290Z,100.00
2017-10-25T03:56:50.975Z,100.00
2017-10-25T03:59:18.679Z,100.00
2017-10-25T04:01:46.334Z,100.00
2017-10-25T04:04:14.018Z,100.00
2017-10-25T04:06:41.670Z,100.00
2017-10-25T04:09:09.370Z,100.00
2017-10-25T04:11:37.041Z,100.00
2017-10-25T04:14:04.740Z,100.00
2017-10-25T04:16:32.392Z,100.00
2017-10-25T04:19:00.086Z,100.00
2017-10-25T04:21:27.743Z,100.00
2017-10-25T04:23:55.440Z,100.00
2017-10-25T04:26:23.082Z,100.00
2017-10-25T04:28:50.781Z,100.00
2017-10-25T04:31:18.438Z,100.00
2017-10-25T04:33:46.160Z,100.00
2017-10-25T04:36:13.825Z,100.00
2017-10-25T04:38:41.415Z,100.00
2017-10-25T04:41:09.105Z,100.00
2017-10-25T04:43:36.754Z,100.00
2017-10-25T04:46:04.432Z,100.00
2017-10-25T04:48:32.099Z,100.00
2017-10-25T04:50:59.956Z,100.00
2017-10-25T04:53:27.618Z,100.00
2017-10-25T04:55:55.305Z,100.00
2017-10-25T04:58:22.964Z,100.00
2017-10-25T05:00:50.656Z,100.00
2017-10-25T05:03:18.310Z,100.00
2017-10-25T05:05:46.003Z,100.00
2017-10-25T05:08:13.684Z,100.00
2017-10-25T05:10:41.384Z,100.00
2017-10-25T05:13:09.043Z,100.00
2017-10-25T05:15:36.737Z,100.00
2017-10-25T05:18:04.407Z,100.00
2017-10-25T05:20:32.114Z,100.00
2017-10-25T05:22:59.774Z,100.00
2017-10-25T05:25:27.482Z,100.00
2017-10-25T05:27:55.167Z,100.00
2017-10-25T05:30:22.857Z,100.00
2017-10-25T05:32:50.514Z,100.00
2017-10-25T05:35:18.224Z,100.00
2017-10-25T05:37:45.873Z,100.00
2017-10-25T05:40:16.022Z,100.00
2017-10-25T05:42:43.610Z,100.00
2017-10-25T05:45:11.266Z,100.00
2017-10-25T05:47:38.950Z,100.00
2017-10-25T05:50:06.609Z,100.00
2017-10-25T05:52:34.461Z,100.00
2017-10-25T05:55:03.837Z,100.00
2017-10-25T05:57:31.533Z,100.00
2017-10-25T05:59:59.193Z,100.00
2017-10-25T06:02:26.877Z,100.00
2017-10-25T06:04:54.571Z,100.00
2017-10-25T06:07:22.209Z,100.00
2017-10-25T06:09:49.861Z,100.00
2017-10-25T06:12:17.559Z,100.00
2017-10-25T06:14:45.254Z,100.00
2017-10-25T06:17:12.906Z,100.00
2017-10-25T06:19:40.550Z,100.00
2017-10-25T06:22:08.304Z,100.00
2017-10-25T06:24:35.956Z,100.00
2017-10-25T06:27:03.678Z,100.00
2017-10-25T06:29:31.452Z,100.00
2017-10-25T06:31:59.138Z,100.00
2017-10-25T06:34:26.714Z,100.00
2017-10-25T06:36:54.408Z,100.00
2017-10-25T06:39:22.009Z,100.00
2017-10-25T06:41:49.670Z,100.00
2017-10-25T06:44:17.360Z,100.00
2017-10-25T06:46:45.006Z,100.00
2017-10-25T06:49:12.696Z,100.00
2017-10-25T06:51:40.296Z,100.00
2017-10-25T06:54:08.000Z,100.00
2017-10-25T06:56:35.602Z,100.00
2017-10-25T06:59:03.294Z,100.00
2017-10-25T07:01:30.905Z,100.00
2017-10-25T07:03:58.536Z,100.00
2017-10-25T07:06:26.142Z,100.00
2017-10-25T07:08:53.865Z,100.00
2017-10-25T07:11:21.463Z,100.00
2017-10-25T07:13:49.108Z,100.00
2017-10-25T07:16:16.780Z,100.00
2017-10-25T07:18:44.478Z,100.00
2017-10-25T07:21:12.085Z,100.00
2017-10-25T07:23:39.787Z,100.00
2017-10-25T07:26:07.447Z,100.00
2017-10-25T07:28:35.144Z,100.00
2017-10-25T07:31:02.862Z,100.00
2017-10-25T07:33:30.575Z,100.00
2017-10-25T07:35:58.257Z,100.00
2017-10-25T07:38:26.939Z,100.00
2017-10-25T07:40:54.637Z,100.00
2017-10-25T07:43:22.352Z,100.00
2017-10-25T07:45:50.028Z,100.00
2017-10-25T07:48:17.688Z,99.86
2017-10-25T07:50:45.391Z,99.69
2017-10-25T07:53:13.058Z,99.66
2017-10-25T07:55:40.742Z,99.70
2017-10-25T07:58:08.383Z,99.48
2017-10-25T08:00:36.054Z,99.42
2017-10-25T08:03:03.738Z,99.44
2017-10-25T08:05:31.459Z,99.30
2017-10-25T08:07:59.137Z,99.09
2017-10-25T08:10:26.859Z,98.73
2017-10-25T08:12:54.548Z,98.72
2017-10-25T08:15:22.255Z,98.70
2017-10-25T08:17:49.905Z,98.14
2017-10-25T08:20:17.626Z,97.80
2017-10-25T08:22:45.304Z,97.63
2017-10-25T08:25:13.002Z,97.49
2017-10-25T08:27:40.666Z,97.57
2017-10-25T08:30:08.366Z,97.21
2017-10-25T08:32:36.047Z,97.26
2017-10-25T08:35:03.729Z,97.04
2017-10-25T08:37:31.416Z,96.93
2017-10-25T08:39:59.044Z,96.72
2017-10-25T08:42:26.720Z,96.74
2017-10-25T08:44:54.463Z,96.34
2017-10-25T08:47:22.162Z,96.26
2017-10-25T08:49:49.842Z,95.80
2017-10-25T08:52:17.535Z,96.18
2017-10-25T08:54:45.189Z,96.06
2017-10-25T08:57:12.883Z,96.25
2017-10-25T08:59:40.564Z,96.17
2017-10-25T09:02:08.185Z,96.23
2017-10-25T09:04:35.831Z,96.33
2017-10-25T09:07:03.544Z,96.74
2017-10-25T09:09:31.213Z,97.11
2017-10-25T09:11:58.898Z,97.55
2017-10-25T09:14:26.559Z,97.74
2017-10-25T09:16:54.304Z,97.88
2017-10-25T09:19:21.953Z,98.10
2017-10-25T09:21:49.665Z,98.33
2017-10-25T09:24:18.162Z,98.21
2017-10-25T09:26:45.864Z,97.94
2017-10-25T09:29:13.512Z,97.92
2017-10-25T09:31:41.200Z,97.71
2017-10-25T09:34:08.870Z,97.12
2017-10-25T09:36:36.569Z,96.90
2017-10-25T09:39:04.269Z,96.50
2017-10-25T09:41:31.940Z,96.39
2017-10-25T09:43:59.595Z,96.61
2017-10-25T09:46:27.308Z,96.71
2017-10-25T09:48:54.966Z,96.53
2017-10-25T09:51:22.722Z,94.01
2017-10-25T09:53:50.383Z,94.34
2017-10-25T09:56:18.059Z,93.46
2017-10-25T09:58:45.720Z,93.60
2017-10-25T10:01:13.438Z,92.65
2017-10-25T10:03:41.111Z,92.72
2017-10-25T10:06:08.767Z,92.34
2017-10-25T10:08:36.446Z,92.08
2017-10-25T10:11:04.107Z,91.66
2017-10-25T10:13:31.780Z,90.69
2017-10-25T10:15:59.400Z,89.93
2017-10-25T10:18:27.085Z,90.05
2017-10-25T10:20:54.662Z,89.65
2017-10-25T10:23:22.398Z,86.50
2017-10-25T10:25:50.059Z,87.76
2017-10-25T10:28:17.769Z,87.56
2017-10-25T10:30:45.455Z,87.29
2017-10-25T10:33:13.141Z,87.22
2017-10-25T10:35:40.822Z,86.84
2017-10-25T10:38:08.589Z,85.92
2017-10-25T10:40:36.248Z,83.24
2017-10-25T10:43:03.946Z,84.63
2017-10-25T10:45:31.691Z,82.98
2017-10-25T10:47:59.377Z,82.36
2017-10-25T10:50:27.056Z,80.66
2017-10-25T10:52:54.689Z,80.25
2017-10-25T10:55:22.341Z,77.20
2017-10-25T10:57:50.257Z,77.96
2017-10-25T11:00:17.971Z,77.61
2017-10-25T11:02:45.617Z,76.58
2017-10-25T11:05:13.266Z,75.82
2017-10-25T11:07:41.120Z,74.84
2017-10-25T11:10:08.756Z,74.60
2017-10-25T11:12:36.433Z,74.60
2017-10-25T11:15:04.053Z,74.44
2017-10-25T11:17:31.729Z,76.14
2017-10-25T11:19:59.450Z,75.54
2017-10-25T11:22:27.094Z,75.04
2017-10-25T11:24:54.794Z,76.07
2017-10-25T11:27:22.442Z,76.16
2017-10-25T11:29:50.133Z,75.10
2017-10-25T11:32:17.773Z,74.48
2017-10-25T11:34:45.530Z,75.00
2017-10-25T11:37:13.198Z,76.27
2017-10-25T11:39:40.834Z,76.24
2017-10-25T11:42:08.516Z,77.04
2017-10-25T11:44:36.211Z,76.53
2017-10-25T11:47:03.801Z,77.55
2017-10-25T11:49:31.419Z,76.80
2017-10-25T11:51:59.081Z,77.32
2017-10-25T11:54:26.710Z,77.80
2017-10-25T11:56:54.316Z,77.28
2017-10-25T11:59:21.917Z,77.47
2017-10-25T12:01:49.627Z,76.82
2017-10-25T12:04:17.309Z,76.88
2017-10-25T12:06:45.035Z,77.87
2017-10-25T12:09:12.739Z,77.75
2017-10-25T12:11:40.439Z,77.02
2017-10-25T12:14:08.094Z,77.43
2017-10-25T12:16:35.777Z,77.07
2017-10-25T12:19:03.427Z,77.30
2017-10-25T12:21:31.054Z,77.92
2017-10-25T12:23:58.716Z,78.14
2017-10-25T12:26:26.399Z,78.89
2017-10-25T12:28:54.048Z,79.22
2017-10-25T12:31:21.736Z,79.19
2017-10-25T12:33:49.390Z,79.51
2017-10-25T12:36:17.096Z,80.09
2017-10-25T12:38:44.812Z,80.37
2017-10-25T12:41:26.460Z,80.21
2017-10-25T12:43:56.080Z,80.23
2017-10-25T12:46:23.786Z,81.03
2017-10-25T12:48:51.410Z,80.67
2017-10-25T12:51:19.072Z,81.59
2017-10-25T12:53:46.757Z,82.58
2017-10-25T12:56:14.334Z,83.29
2017-10-25T12:58:42.354Z,84.47
2017-10-25T13:01:10.079Z,86.12
2017-10-25T13:03:37.723Z,87.74
2017-10-25T13:06:05.388Z,88.88
2017-10-25T13:08:33.087Z,89.68
2017-10-25T13:11:01.331Z,90.23
2017-10-25T13:13:34.327Z,90.39
2017-10-25T13:16:02.830Z,90.26
2017-10-25T13:18:31.051Z,90.85
2017-10-25T13:20:58.647Z,91.29
2017-10-25T13:23:26.269Z,91.59
2017-10-25T13:25:53.877Z,92.10
2017-10-25T13:28:21.550Z,92.68
2017-10-25T13:30:49.199Z,93.29
2017-10-25T13:33:16.822Z,94.08
2017-10-25T13:35:44.478Z,94.38
2017-10-25T13:38:12.093Z,94.44
2017-10-25T13:40:39.676Z,94.73
2017-10-25T13:43:07.365Z,95.22
2017-10-25T13:45:34.945Z,95.63
2017-10-25T13:48:02.596Z,95.75
2017-10-25T13:50:30.187Z,95.80
2017-10-25T13:52:57.812Z,95.75
2017-10-25T13:55:25.422Z,95.94
2017-10-25T13:57:53.110Z,96.08
2017-10-25T14:00:20.782Z,96.04
2017-10-25T14:02:48.452Z,96.16
2017-10-25T14:05:16.127Z,95.99
2017-10-25T14:10:33.711Z,95.99
2017-10-25T14:13:06.796Z,95.74
2017-10-25T14:15:34.588Z,95.67
2017-10-25T14:18:02.237Z,95.65
2017-10-25T14:20:29.917Z,95.12
2017-10-25T14:22:57.504Z,95.25
2017-10-25T14:25:25.135Z,95.15
2017-10-25T14:28:04.587Z,94.93
2017-10-25T14:30:33.300Z,94.88
2017-10-25T14:33:00.918Z,94.87
2017-10-25T14:35:28.550Z,94.46
2017-10-25T14:37:56.245Z,94.39
2017-10-25T14:40:23.878Z,94.37
2017-10-25T14:42:57.864Z,94.32
2017-10-25T14:45:30.923Z,94.38
2017-10-25T14:48:04.570Z,94.18
2017-10-25T14:50:38.166Z,94.22
2017-10-25T14:55:51.518Z,93.22
2017-10-25T14:58:25.697Z,93.04
2017-10-25T15:01:01.527Z,92.62
2017-10-25T15:03:36.533Z,92.48
2017-10-25T15:06:11.175Z,92.13
2017-10-25T15:08:44.194Z,91.70
2017-10-25T15:11:18.181Z,92.13
2017-10-25T15:13:52.938Z,90.08
2017-10-25T15:16:26.379Z,89.58
2017-10-25T15:18:59.726Z,86.10
2017-10-25T15:21:33.391Z,87.71
2017-10-25T15:24:08.265Z,88.40
2017-10-25T15:26:42.600Z,87.21
2017-10-25T15:29:15.670Z,86.45
2017-10-25T15:31:50.918Z,83.99
2017-10-25T15:34:26.540Z,84.82
2017-10-25T15:36:54.778Z,84.62
2017-10-25T15:39:22.369Z,83.19
2017-10-25T15:41:50.034Z,84.15
2017-10-25T15:44:17.696Z,83.67
2017-10-25T15:46:45.294Z,84.70
2017-10-25T15:49:12.937Z,83.37
2017-10-25T15:51:40.523Z,84.11
2017-10-25T15:54:08.146Z,84.19
2017-10-25T15:56:35.753Z,84.47
2017-10-25T15:59:03.370Z,84.51
2017-10-25T16:01:30.962Z,84.54
2017-10-25T16:03:58.722Z,85.02
2017-10-25T16:06:26.342Z,85.65
2017-10-25T16:08:53.966Z,85.54
2017-10-25T16:11:21.558Z,86.20
2017-10-25T16:13:49.187Z,86.09
2017-10-25T16:16:16.973Z,85.91
2017-10-25T16:18:44.656Z,86.44
2017-10-25T16:21:12.279Z,86.43
2017-10-25T16:23:39.900Z,86.91
2017-10-25T16:26:07.505Z,86.41
2017-10-25T16:28:35.180Z,85.16
2017-10-25T16:31:02.784Z,85.73
2017-10-25T16:33:30.730Z,85.46
2017-10-25T16:35:58.371Z,86.31
2017-10-25T16:38:28.587Z,86.41
2017-10-25T16:41:06.206Z,86.24
2017-10-25T16:43:40.427Z,85.76
2017-10-25T16:46:08.430Z,86.26
2017-10-25T16:48:36.049Z,85.90
2017-10-25T16:51:03.706Z,86.18
2017-10-25T16:53:31.299Z,86.40
2017-10-25T16:55:58.926Z,86.81
2017-10-25T16:58:26.529Z,87.23
2017-10-25T17:00:54.294Z,87.21
2017-10-25T17:03:21.877Z,87.49
2017-10-25T17:05:49.615Z,87.64
2017-10-25T17:08:17.206Z,87.68
2017-10-25T17:10:44.910Z,88.04
2017-10-25T17:13:12.559Z,88.25
2017-10-25T17:15:40.205Z,88.57
2017-10-25T17:18:07.793Z,88.70
2017-10-25T17:20:35.435Z,88.77
2017-10-25T17:23:03.035Z,88.54
2017-10-25T17:25:30.713Z,88.71
2017-10-25T17:27:58.305Z,88.81
2017-10-25T17:30:25.899Z,88.93
2017-10-25T17:33:08.754Z,89.25
2017-10-25T17:35:37.579Z,89.58
2017-10-25T17:38:05.230Z,90.02
2017-10-25T17:40:32.843Z,90.47
2017-10-25T17:43:00.507Z,90.80
2017-10-25T17:45:33.334Z,91.15
2017-10-25T17:48:01.806Z,91.36
2017-10-25T17:50:29.671Z,91.67
2017-10-25T17:52:57.349Z,91.93
2017-10-25T17:55:24.949Z,92.13
2017-10-25T17:57:52.572Z,92.21
2017-10-25T18:00:20.176Z,92.45
2017-10-25T18:02:47.814Z,92.67
2017-10-25T18:05:15.404Z,92.92
2017-10-25T18:07:43.099Z,93.16
2017-10-25T18:10:10.707Z,93.36
2017-10-25T18:12:38.357Z,93.52
2017-10-25T18:15:05.959Z,93.64
2017-10-25T18:17:33.588Z,93.55
2017-10-25T18:20:01.326Z,93.46
2017-10-25T18:22:28.954Z,93.37
2017-10-25T18:24:56.642Z,93.40
2017-10-25T18:27:24.250Z,93.50
2017-10-25T18:29:51.905Z,93.56
2017-10-25T18:32:19.510Z,93.63
2017-10-25T18:34:47.163Z,93.77
2017-10-25T18:37:14.814Z,93.93
2017-10-25T18:39:42.425Z,94.16
2017-10-25T18:42:12.103Z,94.55
2017-10-25T18:44:43.461Z,94.86
2017-10-25T18:47:11.343Z,95.06
2017-10-25T18:49:38.992Z,95.22
2017-10-25T18:52:06.587Z,95.35
2017-10-25T18:54:34.360Z,95.49
2017-10-25T18:57:01.958Z,95.47
2017-10-25T18:59:29.608Z,95.57
2017-10-25T19:01:57.278Z,95.65
2017-10-25T19:04:24.876Z,95.66
2017-10-25T19:06:52.577Z,95.64
2017-10-25T19:09:20.173Z,95.70
2017-10-25T19:11:47.873Z,95.72
2017-10-25T19:14:15.456Z,95.66
2017-10-25T19:16:43.083Z,95.63
2017-10-25T19:19:10.696Z,95.75
2017-10-25T19:21:38.400Z,95.95
2017-10-25T19:24:11.617Z,95.96
2017-10-25T19:26:45.321Z,95.90
2017-10-25T19:29:13.763Z,95.86
2017-10-25T19:31:41.404Z,95.83
2017-10-25T19:34:09.396Z,95.78
2017-10-25T19:36:37.086Z,95.71
2017-10-25T19:39:04.826Z,95.69
2017-10-25T19:41:33.518Z,95.74
2017-10-25T19:44:01.191Z,95.68
2017-10-25T19:46:28.871Z,95.54
2017-10-25T19:48:56.514Z,95.35
2017-10-25T19:51:24.223Z,95.34
2017-10-25T19:53:51.910Z,95.44
2017-10-25T19:56:19.608Z,95.53
2017-10-25T19:58:47.273Z,95.63
2017-10-25T20:01:14.951Z,95.69
2017-10-25T20:03:42.625Z,95.73
2017-10-25T20:06:10.298Z,95.83
2017-10-25T20:08:37.936Z,95.88
2017-10-25T20:11:05.590Z,95.98
2017-10-25T20:13:33.280Z,96.07
2017-10-25T20:16:00.952Z,96.16
2017-10-25T20:18:31.449Z,96.19
2017-10-25T20:20:59.058Z,96.30
2017-10-25T20:23:26.777Z,96.36
2017-10-25T20:25:54.445Z,96.38
2017-10-25T20:28:22.085Z,96.49
2017-10-25T20:30:50.047Z,96.55
2017-10-25T20:33:22.131Z,96.67
2017-10-25T20:35:49.717Z,96.75
2017-10-25T20:38:17.355Z,96.83
2017-10-25T20:40:45.061Z,96.99
2017-10-25T20:43:12.685Z,97.09
2017-10-25T20:45:40.345Z,97.17
2017-10-25T20:48:08.077Z,97.41
2017-10-25T20:50:35.752Z,97.42
2017-10-25T20:53:03.448Z,97.57
2017-10-25T20:55:31.115Z,97.70
2017-10-25T20:57:58.705Z,97.73
2017-10-25T21:00:26.423Z,97.76
2017-10-25T21:02:54.098Z,97.69
2017-10-25T21:05:21.793Z,97.62
2017-10-25T21:07:49.458Z,97.63
2017-10-25T21:10:17.146Z,97.62
2017-10-25T21:12:44.857Z,97.69
2017-10-25T21:15:12.558Z,97.75
2017-10-25T21:17:40.209Z,97.85
2017-10-25T21:20:07.891Z,97.94
2017-10-25T21:22:35.582Z,98.08
2017-10-25T21:25:03.304Z,98.20
2017-10-25T21:27:30.982Z,98.33
2017-10-25T21:29:58.698Z,98.42
2017-10-25T21:32:26.364Z,98.51
2017-10-25T21:34:54.072Z,98.55
2017-10-25T21:37:21.729Z,98.56
2017-10-25T21:39:49.490Z,98.57
2017-10-25T21:42:17.162Z,98.60
2017-10-25T21:44:44.826Z,98.71
2017-10-25T21:47:12.534Z,98.82
2017-10-25T21:49:40.171Z,98.90
2017-10-25T21:52:07.890Z,98.93
2017-10-25T21:54:35.595Z,98.94
2017-10-25T21:57:03.313Z,98.95
2017-10-25T21:59:30.891Z,99.00
2017-10-25T22:01:58.609Z,99.02
2017-10-25T22:04:26.257Z,99.01
2017-10-25T22:06:53.933Z,98.99
2017-10-25T22:09:21.594Z,99.06
2017-10-25T22:11:49.273Z,99.08
2017-10-25T22:14:16.916Z,99.10
2017-10-25T22:16:44.637Z,99.13
2017-10-25T22:19:12.300Z,99.16
2017-10-25T22:21:39.997Z,99.18
2017-10-25T22:24:07.656Z,99.18
2017-10-25T22:26:35.355Z,99.21
2017-10-25T22:29:03.012Z,99.23
2017-10-25T22:31:30.676Z,99.24
2017-10-25T22:33:58.382Z,99.26
2017-10-25T22:36:26.035Z,99.38
2017-10-25T22:38:53.774Z,99.44
2017-10-25T22:41:22.376Z,99.46
2017-10-25T22:43:50.074Z,99.43
2017-10-25T22:46:17.752Z,99.42
2017-10-25T22:48:45.430Z,99.47
2017-10-25T22:51:13.076Z,99.49
2017-10-25T22:53:40.766Z,99.45
2017-10-25T22:56:08.416Z,99.47
2017-10-25T22:58:36.081Z,99.50
2017-10-25T23:01:03.726Z,99.52
2017-10-25T23:03:31.437Z,99.55
2017-10-25T23:05:59.116Z,99.56
2017-10-25T23:08:26.801Z,99.59
2017-10-25T23:10:54.436Z,99.69
2017-10-25T23:13:22.158Z,99.71
2017-10-25T23:15:49.820Z,99.69
2017-10-25T23:18:17.518Z,99.66
2017-10-25T23:20:45.095Z,99.70
2017-10-25T23:23:12.786Z,99.73
2017-10-25T23:25:40.438Z,99.77
2017-10-25T23:28:08.079Z,99.83
2017-10-25T23:30:35.762Z,99.84
2017-10-25T23:33:03.423Z,99.84
2017-10-25T23:35:31.111Z,99.87
2017-10-25T23:37:58.746Z,99.84
2017-10-25T23:40:26.458Z,99.81
2017-10-25T23:42:54.106Z,99.78
2017-10-25T23:45:21.772Z,99.75
2017-10-25T23:47:49.431Z,99.78
2017-10-25T23:50:17.127Z,99.85
2017-10-25T23:52:44.782Z,99.90
2017-10-25T23:55:12.469Z,99.98
2017-10-25T23:57:40.150Z,100.00
